createdAt,value
2019-01-15T00:02:13.938Z,101885.62
2019-01-15T00:04:42.521Z,101880.95
2019-01-15T00:07:11.127Z,101881.23
2019-01-15T00:09:39.668Z,101880.56
2019-01-15T00:12:08.336Z,101876.39
2019-01-15T00:14:37.009Z,101883.34
2019-01-15T00:17:05.596Z,101882.75
2019-01-15T00:19:34.211Z,101886.59
2019-01-15T00:22:02.823Z,101888.90
2019-01-15T00:24:31.411Z,101894.39
2019-01-15T00:27:00.124Z,101894.16
2019-01-15T00:29:28.700Z,101895.98
2019-01-15T00:31:57.305Z,101904.30
2019-01-15T00:34:25.993Z,101907.55
2019-01-15T00:36:54.547Z,101902.60
2019-01-15T00:39:23.110Z,101906.30
2019-01-15T00:41:51.726Z,101897.84
2019-01-15T00:44:21.114Z,101894.53
2019-01-15T00:46:49.717Z,101887.84
2019-01-15T00:49:18.261Z,101878.34
2019-01-15T00:51:46.730Z,101877.59
2019-01-15T00:54:15.366Z,101879.22
2019-01-15T00:56:43.927Z,101885.44
2019-01-15T00:59:12.445Z,101887.98
2019-01-15T01:01:41.066Z,101879.11
2019-01-15T01:04:09.647Z,101880.03
2019-01-15T01:06:38.254Z,101878.53
2019-01-15T01:09:10.276Z,101874.94
2019-01-15T01:11:38.897Z,101878.10
2019-01-15T01:14:07.580Z,101874.89
2019-01-15T01:16:36.121Z,101880.70
2019-01-15T01:19:04.747Z,101882.95
2019-01-15T01:21:33.345Z,101878.66
2019-01-15T01:24:01.869Z,101883.17
2019-01-15T01:26:30.514Z,101894.16
2019-01-15T01:28:59.136Z,101886.39
2019-01-15T01:31:27.728Z,101885.36
2019-01-15T01:33:56.360Z,101875.38
2019-01-15T01:36:24.911Z,101875.91
2019-01-15T01:38:53.502Z,101885.16
2019-01-15T01:41:22.116Z,101883.70
2019-01-15T01:43:51.486Z,101888.39
2019-01-15T01:46:20.132Z,101897.59
2019-01-15T01:48:48.727Z,101892.51
2019-01-15T01:51:17.357Z,101897.22
2019-01-15T01:53:45.966Z,101898.66
2019-01-15T01:56:14.570Z,101886.17
2019-01-15T01:58:43.257Z,101903.38
2019-01-15T02:01:11.765Z,101892.36
2019-01-15T02:03:40.369Z,101899.07
2019-01-15T02:06:08.937Z,101904.63
2019-01-15T02:08:37.500Z,101904.44
2019-01-15T02:11:06.095Z,101897.94
2019-01-15T02:13:34.712Z,101899.33
2019-01-15T02:16:03.296Z,101900.12
2019-01-15T02:18:31.896Z,101903.48
2019-01-15T02:21:00.465Z,101910.21
2019-01-15T02:23:28.951Z,101916.03
2019-01-15T02:25:57.428Z,101914.87
2019-01-15T02:28:26.099Z,101902.42
2019-01-15T02:30:54.704Z,101895.78
2019-01-15T02:33:23.245Z,101887.13
2019-01-15T02:35:54.475Z,101887.37
2019-01-15T02:38:23.081Z,101865.38
2019-01-15T02:40:51.705Z,101861.78
2019-01-15T02:43:20.224Z,101867.81
2019-01-15T02:45:48.844Z,101863.41
2019-01-15T02:48:17.457Z,101865.22
2019-01-15T02:50:46.091Z,101859.34
2019-01-15T02:53:14.600Z,101870.96
2019-01-15T02:55:43.176Z,101865.03
2019-01-15T02:58:11.841Z,101873.98
2019-01-15T03:00:40.491Z,101867.71
2019-01-15T03:03:09.033Z,101868.59
2019-01-15T03:05:37.649Z,101873.28
2019-01-15T03:08:06.260Z,101867.06
2019-01-15T03:10:34.851Z,101860.01
2019-01-15T03:13:03.787Z,101867.50
2019-01-15T03:15:32.475Z,101863.78
2019-01-15T03:18:01.073Z,101858.16
2019-01-15T03:20:29.680Z,101860.48
2019-01-15T03:22:58.314Z,101855.51
2019-01-15T03:25:26.936Z,101854.73
2019-01-15T03:27:55.456Z,101848.30
2019-01-15T03:30:24.808Z,101845.02
2019-01-15T03:32:53.697Z,101849.55
2019-01-15T03:35:22.330Z,101855.23
2019-01-15T03:37:52.218Z,101853.19
2019-01-15T03:40:23.461Z,101849.82
2019-01-15T03:42:52.579Z,101850.58
2019-01-15T03:45:21.993Z,101853.86
2019-01-15T03:47:50.627Z,101848.98
2019-01-15T03:50:19.189Z,101852.66
2019-01-15T03:52:47.814Z,101846.42
2019-01-15T03:55:16.992Z,101845.03
2019-01-15T03:57:45.705Z,101838.39
2019-01-15T04:00:19.547Z,101831.36
2019-01-15T04:02:48.305Z,101826.52
2019-01-15T04:05:17.619Z,101821.48
2019-01-15T04:07:47.890Z,101820.44
2019-01-15T04:10:16.480Z,101818.44
2019-01-15T04:12:45.067Z,101823.42
2019-01-15T04:15:14.281Z,101815.93
2019-01-15T04:17:43.208Z,101817.72
2019-01-15T04:20:16.418Z,101821.91
2019-01-15T04:22:45.105Z,101820.22
2019-01-15T04:25:14.943Z,101822.69
2019-01-15T04:27:43.626Z,101819.66
2019-01-15T04:30:14.921Z,101819.94
2019-01-15T04:32:43.880Z,101812.41
2019-01-15T04:35:12.556Z,101803.31
2019-01-15T04:37:41.193Z,101800.91
2019-01-15T04:40:15.509Z,101802.19
2019-01-15T04:42:44.145Z,101797.58
2019-01-15T04:45:17.965Z,101796.42
2019-01-15T04:47:46.600Z,101796.11
2019-01-15T04:50:15.963Z,101794.55
2019-01-15T04:52:46.894Z,101791.09
2019-01-15T04:55:15.619Z,101782.16
2019-01-15T04:57:44.266Z,101778.64
2019-01-15T05:00:20.689Z,101775.30
2019-01-15T05:02:49.676Z,101777.48
2019-01-15T05:05:18.518Z,101775.05
2019-01-15T05:07:47.109Z,101769.95
2019-01-15T05:10:16.665Z,101766.74
2019-01-15T05:12:45.209Z,101772.87
2019-01-15T05:15:15.627Z,101770.72
2019-01-15T05:17:44.352Z,101771.52
2019-01-15T05:20:15.823Z,101774.98
2019-01-15T05:22:44.457Z,101764.87
2019-01-15T05:25:15.542Z,101770.80
2019-01-15T05:27:44.092Z,101769.61
2019-01-15T05:30:15.716Z,101773.33
2019-01-15T05:32:44.313Z,101777.13
2019-01-15T05:35:13.206Z,101784.56
2019-01-15T05:37:41.819Z,101782.05
2019-01-15T05:40:12.801Z,101778.63
2019-01-15T05:42:41.625Z,101778.98
2019-01-15T05:45:15.099Z,101771.18
2019-01-15T05:47:43.998Z,101774.45
2019-01-15T05:50:14.358Z,101771.12
2019-01-15T05:52:42.962Z,101772.77
2019-01-15T05:55:11.548Z,101760.55
2019-01-15T05:57:40.117Z,101754.95
2019-01-15T06:00:14.735Z,101749.75
2019-01-15T06:02:43.276Z,101743.56
2019-01-15T06:05:13.678Z,101742.86
2019-01-15T06:07:42.234Z,101748.81
2019-01-15T06:10:16.969Z,101741.09
2019-01-15T06:12:45.660Z,101743.11
2019-01-15T06:15:15.900Z,101737.70
2019-01-15T06:17:44.538Z,101738.75
2019-01-15T06:20:21.344Z,101735.58
2019-01-15T06:22:49.937Z,101726.89
2019-01-15T06:25:18.460Z,101726.94
2019-01-15T06:27:47.288Z,101730.95
2019-01-15T06:30:20.611Z,101722.13
2019-01-15T06:32:50.134Z,101719.98
2019-01-15T06:35:18.964Z,101719.98
2019-01-15T06:37:47.697Z,101726.84
2019-01-15T06:40:18.266Z,101720.52
2019-01-15T06:42:46.998Z,101713.24
2019-01-15T06:45:18.401Z,101719.17
2019-01-15T06:47:47.257Z,101728.48
2019-01-15T06:50:16.376Z,101721.99
2019-01-15T06:52:45.485Z,101719.59
2019-01-15T06:55:16.471Z,101712.20
2019-01-15T06:57:45.078Z,101717.12
2019-01-15T07:00:19.394Z,101724.94
2019-01-15T07:02:48.099Z,101727.71
2019-01-15T07:05:16.757Z,101718.75
2019-01-15T07:07:45.394Z,101734.23
2019-01-15T07:10:17.287Z,101733.08
2019-01-15T07:12:46.069Z,101731.78
2019-01-15T07:15:15.160Z,101734.47
2019-01-15T07:17:43.748Z,101735.28
2019-01-15T07:20:14.939Z,101731.18
2019-01-15T07:22:43.530Z,101731.73
2019-01-15T07:25:18.027Z,101732.62
2019-01-15T07:27:46.623Z,101734.38
2019-01-15T07:30:20.991Z,101732.88
2019-01-15T07:32:49.688Z,101727.29
2019-01-15T07:35:18.240Z,101720.68
2019-01-15T07:37:46.779Z,101719.80
2019-01-15T07:40:15.443Z,101720.78
2019-01-15T07:42:44.005Z,101721.95
2019-01-15T07:45:14.088Z,101713.55
2019-01-15T07:47:42.966Z,101716.39
2019-01-15T07:50:14.744Z,101708.00
2019-01-15T07:52:43.832Z,101705.90
2019-01-15T07:55:15.072Z,101692.29
2019-01-15T07:57:43.674Z,101703.33
2019-01-15T08:00:17.748Z,101698.76
2019-01-15T08:02:46.470Z,101690.42
2019-01-15T08:05:17.580Z,101689.11
2019-01-15T08:07:46.510Z,101691.64
2019-01-15T08:10:16.998Z,101704.98
2019-01-15T08:12:45.875Z,101706.49
2019-01-15T08:15:28.292Z,101708.61
2019-01-15T08:17:56.901Z,101711.53
2019-01-15T08:20:25.489Z,101698.55
2019-01-15T08:22:54.084Z,101709.97
2019-01-15T08:25:22.979Z,101712.65
2019-01-15T08:27:51.628Z,101710.23
2019-01-15T08:30:25.434Z,101708.70
2019-01-15T08:32:54.070Z,101703.90
2019-01-15T08:35:23.566Z,101701.56
2019-01-15T08:37:52.156Z,101704.03
2019-01-15T08:40:20.791Z,101703.72
2019-01-15T08:42:49.524Z,101708.56
2019-01-15T08:45:18.857Z,101710.50
2019-01-15T08:47:51.744Z,101720.59
2019-01-15T08:50:26.229Z,101717.48
2019-01-15T08:52:54.953Z,101715.80
2019-01-15T08:55:23.687Z,101719.73
2019-01-15T08:57:52.273Z,101724.73
2019-01-15T09:00:20.867Z,101717.64
2019-01-15T09:02:49.444Z,101720.88
2019-01-15T09:05:18.147Z,101719.93
2019-01-15T09:07:46.733Z,101716.70
2019-01-15T09:10:17.280Z,101713.28
2019-01-15T09:12:46.088Z,101716.55
2019-01-15T09:15:20.019Z,101706.34
2019-01-15T09:17:48.658Z,101710.41
2019-01-15T09:20:19.638Z,101701.84
2019-01-15T09:22:48.503Z,101712.17
2019-01-15T09:25:17.638Z,101705.75
2019-01-15T09:27:46.317Z,101703.84
2019-01-15T09:30:20.483Z,101710.29
2019-01-15T09:32:49.293Z,101708.91
2019-01-15T09:35:18.025Z,101706.72
2019-01-15T09:37:47.515Z,101704.56
2019-01-15T09:40:21.234Z,101710.25
2019-01-15T09:42:49.886Z,101702.98
2019-01-15T09:45:20.728Z,101710.83
2019-01-15T09:47:53.818Z,101703.01
2019-01-15T09:50:22.431Z,101700.85
2019-01-15T09:52:51.695Z,101700.88
2019-01-15T09:55:20.302Z,101701.70
2019-01-15T09:57:48.856Z,101692.80
2019-01-15T10:00:19.495Z,101690.13
2019-01-15T10:02:48.484Z,101688.77
2019-01-15T10:05:17.026Z,101688.50
2019-01-15T10:07:45.823Z,101682.84
2019-01-15T10:10:16.146Z,101684.19
2019-01-15T10:12:44.955Z,101684.17
2019-01-15T10:15:16.464Z,101683.64
2019-01-15T10:17:45.220Z,101677.71
2019-01-15T10:20:15.925Z,101676.08
2019-01-15T10:22:44.791Z,101671.75
2019-01-15T10:25:15.258Z,101663.65
2019-01-15T10:27:44.595Z,101664.75
2019-01-15T10:30:29.665Z,101661.48
2019-01-15T10:33:04.019Z,101659.07
2019-01-15T10:35:50.244Z,101658.78
2019-01-15T10:38:18.800Z,101661.47
2019-01-15T10:40:47.727Z,101662.86
2019-01-15T10:43:16.495Z,101662.32
2019-01-15T10:45:45.070Z,101662.04
2019-01-15T10:48:13.688Z,101663.38
2019-01-15T10:50:42.276Z,101653.66
2019-01-15T10:53:10.992Z,101650.72
2019-01-15T10:55:39.619Z,101645.56
2019-01-15T10:58:08.312Z,101640.17
2019-01-15T11:00:36.943Z,101646.11
2019-01-15T11:03:05.778Z,101647.17
2019-01-15T11:05:34.359Z,101645.80
2019-01-15T11:08:03.434Z,101640.66
2019-01-15T11:10:32.032Z,101640.05
2019-01-15T11:13:00.648Z,101642.41
2019-01-15T11:15:29.158Z,101635.44
2019-01-15T11:17:57.787Z,101634.92
2019-01-15T11:20:26.373Z,101642.52
2019-01-15T11:22:55.542Z,101637.13
2019-01-15T11:25:24.227Z,101636.33
2019-01-15T11:27:52.848Z,101638.77
2019-01-15T11:30:22.459Z,101624.98
2019-01-15T11:32:51.102Z,101634.19
2019-01-15T11:35:19.611Z,101622.27
2019-01-15T11:37:48.181Z,101624.42
2019-01-15T11:40:18.478Z,101622.51
2019-01-15T11:42:47.172Z,101628.17
2019-01-15T11:45:19.959Z,101619.21
2019-01-15T11:47:50.224Z,101612.59
2019-01-15T11:50:23.090Z,101620.22
2019-01-15T11:52:51.873Z,101618.13
2019-01-15T11:55:21.388Z,101615.75
2019-01-15T11:57:50.270Z,101606.06
2019-01-15T12:00:31.947Z,101606.60
2019-01-15T12:03:02.178Z,101608.24
2019-01-15T12:05:41.318Z,101607.16
2019-01-15T12:08:11.499Z,101603.37
2019-01-15T12:11:00.265Z,101607.99
2019-01-15T12:13:33.295Z,101601.50
2019-01-15T12:16:03.572Z,101596.06
2019-01-15T12:18:51.908Z,101597.41
2019-01-15T12:21:30.862Z,101594.06
2019-01-15T12:24:06.997Z,101585.63
2019-01-15T12:26:43.001Z,101586.45
2019-01-15T12:29:28.441Z,101585.16
2019-01-15T12:31:58.650Z,101581.66
2019-01-15T12:34:34.583Z,101584.38
2019-01-15T12:37:21.313Z,101577.64
2019-01-15T12:40:07.963Z,101574.95
2019-01-15T12:42:44.008Z,101575.19
2019-01-15T12:45:22.974Z,101569.20
2019-01-15T12:48:02.196Z,101567.59
2019-01-15T12:50:35.027Z,101562.98
2019-01-15T12:53:20.329Z,101567.59
2019-01-15T12:55:53.151Z,101558.33
2019-01-15T12:58:39.758Z,101559.58
2019-01-15T13:01:09.883Z,101554.72
2019-01-15T13:03:56.398Z,101550.18
2019-01-15T13:06:41.649Z,101545.41
2019-01-15T13:09:18.187Z,101539.45
2019-01-15T13:11:48.436Z,101539.98
2019-01-15T13:14:21.506Z,101542.70
2019-01-15T13:16:57.635Z,101535.39
2019-01-15T13:19:37.436Z,101543.52
2019-01-15T13:22:24.190Z,101539.17
2019-01-15T13:24:54.381Z,101548.31
2019-01-15T13:27:24.594Z,101552.65
2019-01-15T13:30:01.003Z,101547.78
2019-01-15T13:32:37.034Z,101558.02
2019-01-15T13:35:13.934Z,101554.91
2019-01-15T13:37:46.916Z,101548.20
2019-01-15T13:40:17.173Z,101556.17
2019-01-15T13:42:49.818Z,101550.84
2019-01-15T13:45:28.997Z,101551.73
2019-01-15T13:48:01.998Z,101561.23
2019-01-15T13:50:38.256Z,101553.90
2019-01-15T13:53:08.489Z,101549.30
2019-01-15T13:55:44.564Z,101557.12
2019-01-15T13:58:31.008Z,101547.61
2019-01-15T14:01:13.394Z,101549.21
2019-01-15T14:03:46.402Z,101549.23
2019-01-15T14:06:22.736Z,101545.71
2019-01-15T14:09:11.205Z,101542.66
2019-01-15T14:11:41.447Z,101534.24
2019-01-15T14:14:30.196Z,101534.89
2019-01-15T14:17:00.418Z,101537.13
2019-01-15T14:19:30.731Z,101524.78
2019-01-15T14:22:17.066Z,101527.23
2019-01-15T14:25:03.552Z,101528.92
2019-01-15T14:27:33.808Z,101531.86
2019-01-15T14:30:20.127Z,101527.00
2019-01-15T14:33:06.976Z,101521.02
2019-01-15T14:35:39.959Z,101506.39
2019-01-15T14:38:13.453Z,101522.87
2019-01-15T14:40:46.723Z,101515.56
2019-01-15T14:43:19.696Z,101515.52
2019-01-15T14:46:00.454Z,101506.80
2019-01-15T14:48:36.837Z,101515.77
2019-01-15T14:51:07.163Z,101516.61
2019-01-15T14:53:49.516Z,101519.09
2019-01-15T14:56:22.746Z,101516.14
2019-01-15T14:58:55.757Z,101511.06
2019-01-15T15:01:29.165Z,101517.52
2019-01-15T15:04:16.346Z,101514.56
2019-01-15T15:06:52.309Z,101513.44
2019-01-15T15:09:38.966Z,101511.25
2019-01-15T15:12:18.071Z,101517.23
2019-01-15T15:14:48.316Z,101512.63
2019-01-15T15:17:18.538Z,101505.27
2019-01-15T15:19:48.846Z,101512.52
2019-01-15T15:22:35.572Z,101509.78
2019-01-15T15:25:13.968Z,101504.95
2019-01-15T15:27:49.993Z,101504.77
2019-01-15T15:30:26.312Z,101507.01
2019-01-15T15:32:56.519Z,101499.74
2019-01-15T15:35:43.160Z,101504.06
2019-01-15T15:38:29.844Z,101497.56
2019-01-15T15:41:09.813Z,101502.94
2019-01-15T15:43:40.073Z,101497.30
2019-01-15T15:46:12.662Z,101487.58
2019-01-15T15:48:42.926Z,101498.35
2019-01-15T15:51:13.169Z,101500.77
2019-01-15T15:53:58.810Z,101498.18
2019-01-15T15:56:45.408Z,101498.18
2019-01-15T15:59:32.425Z,101498.20
2019-01-15T16:02:19.171Z,101502.62
2019-01-15T16:04:49.423Z,101497.25
2019-01-15T16:07:25.905Z,101502.95
2019-01-15T16:09:59.260Z,101502.14
2019-01-15T16:12:41.743Z,101499.95
2019-01-15T16:15:30.592Z,101499.73
2019-01-15T16:18:09.957Z,101504.83
2019-01-15T16:20:56.511Z,101495.09
2019-01-15T16:23:33.023Z,101497.80
2019-01-15T16:26:03.251Z,101497.81
2019-01-15T16:28:36.422Z,101489.94
2019-01-15T16:31:22.176Z,101492.33
2019-01-15T16:33:55.224Z,101493.88
2019-01-15T16:36:40.345Z,101491.23
2019-01-15T16:39:14.068Z,101495.36
2019-01-15T16:41:50.147Z,101482.17
2019-01-15T16:44:20.402Z,101482.17
2019-01-15T16:46:50.649Z,101485.45
2019-01-15T16:49:20.852Z,101489.46
2019-01-15T16:51:51.077Z,101485.41
2019-01-15T16:54:27.382Z,101479.69
2019-01-15T16:57:16.021Z,101487.58
2019-01-15T16:59:52.215Z,101488.91
2019-01-15T17:02:38.863Z,101489.14
2019-01-15T17:05:19.950Z,101482.89
2019-01-15T17:07:55.572Z,101482.19
2019-01-15T17:10:31.841Z,101476.25
2019-01-15T17:13:04.775Z,101481.22
2019-01-15T17:15:37.900Z,101475.09
2019-01-15T17:18:10.864Z,101481.31
2019-01-15T17:20:43.848Z,101475.11
2019-01-15T17:23:19.523Z,101472.47
2019-01-15T17:26:06.056Z,101480.53
2019-01-15T17:28:39.167Z,101473.52
2019-01-15T17:31:18.710Z,101470.80
2019-01-15T17:33:48.930Z,101474.86
2019-01-15T17:36:37.561Z,101467.55
2019-01-15T17:39:25.932Z,101471.32
2019-01-15T17:42:01.844Z,101474.77
2019-01-15T17:44:41.336Z,101471.16
2019-01-15T17:47:14.537Z,101474.45
2019-01-15T17:49:50.832Z,101476.67
2019-01-15T17:52:21.104Z,101482.91
2019-01-15T17:55:03.674Z,101481.05
2019-01-15T17:57:52.185Z,101481.05
2019-01-15T18:00:28.483Z,101484.83
2019-01-15T18:03:15.153Z,101482.94
2019-01-15T18:05:51.420Z,101480.78
2019-01-15T18:08:36.994Z,101479.48
2019-01-15T18:11:10.042Z,101476.72
2019-01-15T18:13:56.632Z,101469.70
2019-01-15T18:16:29.582Z,101465.84
2019-01-15T18:18:59.846Z,101462.52
2019-01-15T18:21:30.079Z,101465.55
2019-01-15T18:24:03.244Z,101465.86
2019-01-15T18:26:39.201Z,101460.52
2019-01-15T18:29:15.226Z,101465.98
2019-01-15T18:31:57.372Z,101462.50
2019-01-15T18:34:30.442Z,101462.77
2019-01-15T18:37:03.619Z,101465.19
2019-01-15T18:39:52.026Z,101454.10
2019-01-15T18:42:22.250Z,101458.09
2019-01-15T18:45:10.985Z,101452.41
2019-01-15T18:47:55.951Z,101465.91
2019-01-15T18:50:41.065Z,101457.22
2019-01-15T18:53:14.206Z,101454.72
2019-01-15T18:55:47.408Z,101461.47
2019-01-15T18:58:33.898Z,101459.64
2019-01-15T19:01:22.193Z,101458.33
2019-01-15T19:03:55.342Z,101450.29
2019-01-15T19:06:28.365Z,101455.75
2019-01-15T19:09:07.264Z,101452.80
2019-01-15T19:11:53.693Z,101450.05
2019-01-15T19:14:26.747Z,101449.27
2019-01-15T19:17:13.088Z,101444.91
2019-01-15T19:19:58.540Z,101446.55
2019-01-15T19:22:47.267Z,101429.22
2019-01-15T19:25:17.566Z,101445.44
2019-01-15T19:28:02.806Z,101430.74
2019-01-15T19:30:33.931Z,101442.52
2019-01-15T19:33:22.464Z,101441.75
2019-01-15T19:35:58.721Z,101449.66
2019-01-15T19:38:29.001Z,101458.39
2019-01-15T19:40:59.205Z,101455.72
2019-01-15T19:43:38.184Z,101458.16
2019-01-15T19:46:23.321Z,101450.30
2019-01-15T19:49:02.698Z,101455.13
2019-01-15T19:51:36.023Z,101446.47
2019-01-15T19:54:22.586Z,101446.73
2019-01-15T19:57:02.037Z,101446.73
2019-01-15T19:59:44.220Z,101444.30
2019-01-15T20:02:26.756Z,101445.30
2019-01-15T20:05:02.992Z,101445.45
2019-01-15T20:07:35.957Z,101437.09
2019-01-15T20:10:24.959Z,101444.72
2019-01-15T20:13:10.555Z,101441.02
2019-01-15T20:15:56.107Z,101448.13
2019-01-15T20:18:29.353Z,101440.34
2019-01-15T20:20:59.611Z,101436.85
2019-01-15T20:23:35.652Z,101446.27
2019-01-15T20:26:11.974Z,101451.91
2019-01-15T20:28:58.385Z,101449.98
2019-01-15T20:31:34.706Z,101445.64
2019-01-15T20:34:04.994Z,101446.16
2019-01-15T20:36:35.252Z,101436.37
2019-01-15T20:39:12.697Z,101445.22
2019-01-15T20:41:42.980Z,101437.31
2019-01-15T20:44:13.237Z,101431.20
2019-01-15T20:46:43.496Z,101435.87
2019-01-15T20:49:22.898Z,101444.56
2019-01-15T20:51:53.102Z,101440.84
2019-01-15T20:54:23.333Z,101443.80
2019-01-15T20:56:53.515Z,101441.39
2019-01-15T20:59:23.785Z,101444.87
2019-01-15T21:01:54.051Z,101434.59
2019-01-15T21:04:40.352Z,101435.39
2019-01-15T21:07:26.975Z,101434.23
2019-01-15T21:10:00.156Z,101433.64
2019-01-15T21:12:30.359Z,101435.00
2019-01-15T21:15:00.597Z,101431.62
2019-01-15T21:17:33.141Z,101430.97
2019-01-15T21:20:14.861Z,101434.88
2019-01-15T21:22:50.991Z,101432.03
2019-01-15T21:25:37.471Z,101425.88
2019-01-15T21:28:10.846Z,101433.78
2019-01-15T21:30:50.644Z,101438.97
2019-01-15T21:33:18.701Z,101438.14
2019-01-15T21:35:51.908Z,101432.38
2019-01-15T21:38:24.882Z,101436.39
2019-01-15T21:40:58.025Z,101433.41
2019-01-15T21:43:31.031Z,101436.13
2019-01-15T21:46:16.594Z,101433.97
2019-01-15T21:48:46.835Z,101425.27
2019-01-15T21:51:17.116Z,101431.59
2019-01-15T21:54:03.660Z,101424.58
2019-01-15T21:56:33.771Z,101420.13
2019-01-15T21:59:03.987Z,101422.95
2019-01-15T22:01:50.627Z,101422.41
2019-01-15T22:04:27.156Z,101425.19
2019-01-15T22:07:04.632Z,101417.38
2019-01-15T22:09:50.853Z,101424.16
2019-01-15T22:12:37.267Z,101418.72
2019-01-15T22:15:16.056Z,101422.47
2019-01-15T22:17:47.557Z,101408.41
2019-01-15T22:20:26.687Z,101409.98
2019-01-15T22:22:57.003Z,101410.20
2019-01-15T22:25:30.311Z,101405.87
2019-01-15T22:28:12.901Z,101396.52
2019-01-15T22:30:45.791Z,101397.97
2019-01-15T22:33:15.990Z,101400.48
2019-01-15T22:35:55.240Z,101388.66
2019-01-15T22:38:43.487Z,101392.47
2019-01-15T22:41:30.174Z,101391.41
2019-01-15T22:44:00.425Z,101385.77
2019-01-15T22:46:47.128Z,101374.95
2019-01-15T22:49:17.295Z,101374.95
2019-01-15T22:52:03.734Z,101376.80
2019-01-15T22:54:33.959Z,101371.09
2019-01-15T22:57:19.304Z,101369.45
2019-01-15T22:59:52.424Z,101368.34
2019-01-15T23:02:31.970Z,101361.72
2019-01-15T23:05:02.253Z,101356.31
2019-01-15T23:07:32.304Z,101355.02
2019-01-15T23:10:05.345Z,101356.39
2019-01-15T23:12:50.899Z,101359.15
2019-01-15T23:15:30.419Z,101354.60
2019-01-15T23:18:15.722Z,101356.31
2019-01-15T23:21:02.408Z,101349.25
2019-01-15T23:23:32.605Z,101355.17
2019-01-15T23:26:08.868Z,101351.64
2019-01-15T23:28:55.360Z,101352.19
2019-01-15T23:31:28.499Z,101349.48
2019-01-15T23:34:01.398Z,101346.48
2019-01-15T23:36:48.053Z,101343.35
2019-01-15T23:39:34.783Z,101344.58
2019-01-15T23:42:04.995Z,101334.70
2019-01-15T23:44:38.361Z,101337.77
2019-01-15T23:47:14.675Z,101340.84
2019-01-15T23:50:02.905Z,101341.17
2019-01-15T23:52:33.188Z,101339.58
2019-01-15T23:55:09.037Z,101341.74
2019-01-15T23:57:42.106Z,101326.03
